sensor_id;sensor_type;location;lat;lon;timestamp;pressure;altitude;pressure_sealevel;temperature;humidity
70407;BME280;57821;52.202;0.154;2023-02-28T00:02:29;103395.56;;;1.00;82.10
70407;BME280;57821;52.202;0.154;2023-02-28T00:04:55;103401.50;;;0.99;82.44
70407;BME280;57821;52.202;0.154;2023-02-28T00:07:22;103409.50;;;1.03;82.60
70407;BME280;57821;52.202;0.154;2023-02-28T00:09:48;103404.56;;;0.95;82.19
70407;BME280;57821;52.202;0.154;2023-02-28T00:12:15;103405.31;;;0.94;81.78
70407;BME280;57821;52.202;0.154;2023-02-28T00:14:41;103395.44;;;0.87;82.44
70407;BME280;57821;52.202;0.154;2023-02-28T00:17:08;103404.00;;;0.87;82.05
70407;BME280;57821;52.202;0.154;2023-02-28T00:19:34;103403.59;;;0.82;82.35
70407;BME280;57821;52.202;0.154;2023-02-28T00:22:01;103396.25;;;0.75;82.36
70407;BME280;57821;52.202;0.154;2023-02-28T00:24:28;103392.22;;;0.67;82.94
70407;BME280;57821;52.202;0.154;2023-02-28T00:26:54;103392.34;;;0.69;82.23
70407;BME280;57821;52.202;0.154;2023-02-28T00:29:21;103383.94;;;0.60;82.77
70407;BME280;57821;52.202;0.154;2023-02-28T00:31:47;103393.53;;;0.62;82.22
70407;BME280;57821;52.202;0.154;2023-02-28T00:34:14;103403.72;;;0.62;82.56
70407;BME280;57821;52.202;0.154;2023-02-28T00:36:41;103390.34;;;0.55;82.32
70407;BME280;57821;52.202;0.154;2023-02-28T00:39:07;103392.78;;;0.53;82.86
70407;BME280;57821;52.202;0.154;2023-02-28T00:41:34;103407.34;;;0.54;82.15
70407;BME280;57821;52.202;0.154;2023-02-28T00:44:00;103408.91;;;0.52;82.66
70407;BME280;57821;52.202;0.154;2023-02-28T00:46:27;103399.59;;;0.43;82.72
70407;BME280;57821;52.202;0.154;2023-02-28T00:48:53;103405.59;;;0.43;82.65
70407;BME280;57821;52.202;0.154;2023-02-28T00:51:20;103409.59;;;0.39;83.00
70407;BME280;57821;52.202;0.154;2023-02-28T00:53:47;103410.72;;;0.43;83.68
70407;BME280;57821;52.202;0.154;2023-02-28T00:56:15;103407.53;;;0.46;83.88
70407;BME280;57821;52.202;0.154;2023-02-28T00:58:42;103406.97;;;0.50;83.67
70407;BME280;57821;52.202;0.154;2023-02-28T01:01:09;103409.13;;;0.55;83.61
70407;BME280;57821;52.202;0.154;2023-02-28T01:03:37;103400.34;;;0.52;84.14
70407;BME280;57821;52.202;0.154;2023-02-28T01:06:04;103408.34;;;0.56;83.53
70407;BME280;57821;52.202;0.154;2023-02-28T01:08:31;103394.34;;;0.51;84.19
70407;BME280;57821;52.202;0.154;2023-02-28T01:10:57;103397.00;;;0.53;83.34
70407;BME280;57821;52.202;0.154;2023-02-28T01:13:24;103394.22;;;0.50;83.79
70407;BME280;57821;52.202;0.154;2023-02-28T01:15:52;103383.66;;;0.45;83.48
70407;BME280;57821;52.202;0.154;2023-02-28T01:18:22;103391.06;;;0.42;83.88
70407;BME280;57821;52.202;0.154;2023-02-28T01:20:48;103401.38;;;0.44;83.75
70407;BME280;57821;52.202;0.154;2023-02-28T01:23:15;103381.53;;;0.29;83.66
70407;BME280;57821;52.202;0.154;2023-02-28T01:25:42;103399.25;;;0.38;83.93
70407;BME280;57821;52.202;0.154;2023-02-28T01:28:08;103396.97;;;0.31;84.16
70407;BME280;57821;52.202;0.154;2023-02-28T01:30:35;103396.84;;;0.29;84.30
70407;BME280;57821;52.202;0.154;2023-02-28T01:33:02;103406.41;;;0.32;83.64
70407;BME280;57821;52.202;0.154;2023-02-28T01:35:32;103401.09;;;0.29;84.46
70407;BME280;57821;52.202;0.154;2023-02-28T01:37:59;103383.91;;;0.16;83.99
70407;BME280;57821;52.202;0.154;2023-02-28T01:40:37;103381.97;;;0.14;83.91
70407;BME280;57821;52.202;0.154;2023-02-28T01:43:19;103412.47;;;0.22;84.05
70407;BME280;57821;52.202;0.154;2023-02-28T01:45:46;103408.34;;;0.24;84.69
70407;BME280;57821;52.202;0.154;2023-02-28T01:48:12;103410.81;;;0.23;83.70
70407;BME280;57821;52.202;0.154;2023-02-28T01:50:43;103418.97;;;0.19;83.49
70407;BME280;57821;52.202;0.154;2023-02-28T01:53:14;103389.31;;;-0.01;83.66
70407;BME280;57821;52.202;0.154;2023-02-28T01:55:47;103413.34;;;0.13;83.68
70407;BME280;57821;52.202;0.154;2023-02-28T01:58:15;103401.91;;;0.08;83.93
70407;BME280;57821;52.202;0.154;2023-02-28T02:00:42;103416.72;;;0.12;83.44
70407;BME280;57821;52.202;0.154;2023-02-28T02:03:12;103412.88;;;0.07;83.86
70407;BME280;57821;52.202;0.154;2023-02-28T02:05:42;103400.16;;;-0.04;83.81
70407;BME280;57821;52.202;0.154;2023-02-28T02:08:12;103416.22;;;0.06;83.97
70407;BME280;57821;52.202;0.154;2023-02-28T02:10:56;103403.72;;;-0.02;84.25
70407;BME280;57821;52.202;0.154;2023-02-28T02:16:02;103418.38;;;0.01;84.05
70407;BME280;57821;52.202;0.154;2023-02-28T02:18:53;103425.38;;;0.04;84.51
70407;BME280;57821;52.202;0.154;2023-02-28T02:24:33;103413.53;;;0.04;84.62
70407;BME280;57821;52.202;0.154;2023-02-28T02:35:11;103408.03;;;0.10;83.95
70407;BME280;57821;52.202;0.154;2023-02-28T02:37:45;103412.22;;;0.09;84.08
70407;BME280;57821;52.202;0.154;2023-02-28T02:40:22;103400.00;;;0.05;84.24
70407;BME280;57821;52.202;0.154;2023-02-28T02:42:56;103404.72;;;0.00;83.92
70407;BME280;57821;52.202;0.154;2023-02-28T02:45:32;103419.38;;;0.03;84.13
70407;BME280;57821;52.202;0.154;2023-02-28T02:48:00;103419.25;;;0.02;84.16
70407;BME280;57821;52.202;0.154;2023-02-28T02:50:42;103412.13;;;-0.03;84.47
70407;BME280;57821;52.202;0.154;2023-02-28T02:53:11;103420.81;;;-0.01;84.37
70407;BME280;57821;52.202;0.154;2023-02-28T02:55:41;103415.44;;;-0.04;84.37
70407;BME280;57821;52.202;0.154;2023-02-28T02:58:15;103421.72;;;0.00;84.40
70407;BME280;57821;52.202;0.154;2023-02-28T03:00:47;103418.38;;;0.01;84.71
70407;BME280;57821;52.202;0.154;2023-02-28T03:03:18;103417.38;;;-0.01;85.01
70407;BME280;57821;52.202;0.154;2023-02-28T03:05:47;103404.63;;;-0.01;85.32
70407;BME280;57821;52.202;0.154;2023-02-28T03:08:15;103418.09;;;0.08;85.95
70407;BME280;57821;52.202;0.154;2023-02-28T03:10:45;103413.34;;;0.13;86.37
70407;BME280;57821;52.202;0.154;2023-02-28T03:13:37;103415.41;;;0.17;86.69
70407;BME280;57821;52.202;0.154;2023-02-28T03:27:08;103397.19;;;0.44;88.79
70407;BME280;57821;52.202;0.154;2023-02-28T03:29:40;103395.88;;;0.49;88.72
70407;BME280;57821;52.202;0.154;2023-02-28T03:34:56;103400.91;;;0.59;89.44
70407;BME280;57821;52.202;0.154;2023-02-28T03:37:26;103396.44;;;0.67;89.71
70407;BME280;57821;52.202;0.154;2023-02-28T03:40:01;103396.91;;;0.73;89.80
70407;BME280;57821;52.202;0.154;2023-02-28T03:42:31;103394.69;;;0.77;90.05
70407;BME280;57821;52.202;0.154;2023-02-28T03:45:13;103388.81;;;0.78;90.08
70407;BME280;57821;52.202;0.154;2023-02-28T03:47:57;103396.97;;;0.85;90.46
70407;BME280;57821;52.202;0.154;2023-02-28T03:50:29;103394.19;;;0.81;89.89
70407;BME280;57821;52.202;0.154;2023-02-28T03:53:01;103396.66;;;0.92;89.83
70407;BME280;57821;52.202;0.154;2023-02-28T03:55:37;103394.13;;;0.92;90.14
70407;BME280;57821;52.202;0.154;2023-02-28T04:00:48;103397.44;;;0.91;91.02
70407;BME280;57821;52.202;0.154;2023-02-28T04:03:17;103396.13;;;0.96;90.85
70407;BME280;57821;52.202;0.154;2023-02-28T04:05:54;103398.81;;;0.97;90.87
70407;BME280;57821;52.202;0.154;2023-02-28T04:08:21;103399.16;;;1.02;90.80
70407;BME280;57821;52.202;0.154;2023-02-28T04:10:55;103396.84;;;1.05;90.88
70407;BME280;57821;52.202;0.154;2023-02-28T04:13:23;103398.84;;;1.09;91.30
70407;BME280;57821;52.202;0.154;2023-02-28T04:15:50;103404.66;;;1.18;91.14
70407;BME280;57821;52.202;0.154;2023-02-28T04:18:16;103408.44;;;1.23;91.82
70407;BME280;57821;52.202;0.154;2023-02-28T04:20:43;103396.56;;;1.23;91.92
70407;BME280;57821;52.202;0.154;2023-02-28T04:23:10;103395.78;;;1.24;91.55
70407;BME280;57821;52.202;0.154;2023-02-28T04:25:36;103405.59;;;1.30;91.60
70407;BME280;57821;52.202;0.154;2023-02-28T04:28:03;103408.59;;;1.36;91.61
70407;BME280;57821;52.202;0.154;2023-02-28T04:30:30;103406.28;;;1.39;91.61
70407;BME280;57821;52.202;0.154;2023-02-28T04:32:57;103412.41;;;1.41;91.28
70407;BME280;57821;52.202;0.154;2023-02-28T04:35:23;103419.00;;;1.49;91.70
70407;BME280;57821;52.202;0.154;2023-02-28T04:37:50;103432.09;;;1.54;91.35
70407;BME280;57821;52.202;0.154;2023-02-28T04:40:16;103412.09;;;1.48;91.28
70407;BME280;57821;52.202;0.154;2023-02-28T04:42:43;103422.78;;;1.54;90.87
70407;BME280;57821;52.202;0.154;2023-02-28T04:45:10;103420.22;;;1.54;90.85
70407;BME280;57821;52.202;0.154;2023-02-28T04:47:36;103421.88;;;1.54;90.91
70407;BME280;57821;52.202;0.154;2023-02-28T04:50:03;103431.47;;;1.56;91.23
70407;BME280;57821;52.202;0.154;2023-02-28T04:52:30;103417.19;;;1.48;90.75
70407;BME280;57821;52.202;0.154;2023-02-28T04:54:56;103438.25;;;1.56;90.77
70407;BME280;57821;52.202;0.154;2023-02-28T04:57:23;103419.19;;;1.52;90.46
70407;BME280;57821;52.202;0.154;2023-02-28T04:59:49;103414.63;;;1.48;90.69
70407;BME280;57821;52.202;0.154;2023-02-28T05:02:19;103415.84;;;1.42;89.85
70407;BME280;57821;52.202;0.154;2023-02-28T05:04:46;103433.19;;;1.46;90.19
70407;BME280;57821;52.202;0.154;2023-02-28T05:07:12;103430.28;;;1.41;89.65
70407;BME280;57821;52.202;0.154;2023-02-28T05:09:39;103428.16;;;1.36;89.50
70407;BME280;57821;52.202;0.154;2023-02-28T05:12:06;103435.72;;;1.34;89.47
70407;BME280;57821;52.202;0.154;2023-02-28T05:14:32;103421.22;;;1.23;89.84
70407;BME280;57821;52.202;0.154;2023-02-28T05:16:59;103429.13;;;1.26;89.59
70407;BME280;57821;52.202;0.154;2023-02-28T05:19:25;103424.66;;;1.23;89.49
70407;BME280;57821;52.202;0.154;2023-02-28T05:21:54;103430.47;;;1.21;89.38
70407;BME280;57821;52.202;0.154;2023-02-28T05:24:21;103438.13;;;1.21;89.31
70407;BME280;57821;52.202;0.154;2023-02-28T05:26:50;103423.31;;;1.17;89.01
70407;BME280;57821;52.202;0.154;2023-02-28T05:29:17;103431.22;;;1.20;89.23
70407;BME280;57821;52.202;0.154;2023-02-28T05:31:44;103431.78;;;1.16;89.21
70407;BME280;57821;52.202;0.154;2023-02-28T05:34:10;103435.09;;;1.15;89.40
70407;BME280;57821;52.202;0.154;2023-02-28T05:36:37;103436.63;;;1.13;89.43
70407;BME280;57821;52.202;0.154;2023-02-28T05:39:05;103436.75;;;1.14;89.17
70407;BME280;57821;52.202;0.154;2023-02-28T05:41:32;103439.97;;;1.12;89.02
70407;BME280;57821;52.202;0.154;2023-02-28T05:43:59;103441.19;;;1.17;89.43
70407;BME280;57821;52.202;0.154;2023-02-28T05:46:25;103431.53;;;1.13;88.63
70407;BME280;57821;52.202;0.154;2023-02-28T05:48:52;103429.72;;;1.12;89.44
70407;BME280;57821;52.202;0.154;2023-02-28T05:51:18;103436.34;;;1.20;89.07
70407;BME280;57821;52.202;0.154;2023-02-28T05:53:45;103432.00;;;1.19;89.57
70407;BME280;57821;52.202;0.154;2023-02-28T05:56:11;103435.78;;;1.24;89.39
70407;BME280;57821;52.202;0.154;2023-02-28T05:58:38;103440.91;;;1.24;89.21
70407;BME280;57821;52.202;0.154;2023-02-28T06:04:00;103449.81;;;1.29;89.27
70407;BME280;57821;52.202;0.154;2023-02-28T06:06:27;103446.25;;;1.27;89.00
70407;BME280;57821;52.202;0.154;2023-02-28T06:08:54;103436.56;;;1.23;89.15
70407;BME280;57821;52.202;0.154;2023-02-28T06:11:20;103455.03;;;1.31;88.85
70407;BME280;57821;52.202;0.154;2023-02-28T06:13:47;103453.38;;;1.31;89.72
70407;BME280;57821;52.202;0.154;2023-02-28T06:16:14;103450.69;;;1.30;89.56
70407;BME280;57821;52.202;0.154;2023-02-28T06:18:40;103447.50;;;1.32;89.03
70407;BME280;57821;52.202;0.154;2023-02-28T06:21:07;103460.06;;;1.41;89.07
70407;BME280;57821;52.202;0.154;2023-02-28T06:23:33;103448.88;;;1.39;89.42
70407;BME280;57821;52.202;0.154;2023-02-28T06:26:00;103442.09;;;1.39;89.17
70407;BME280;57821;52.202;0.154;2023-02-28T06:28:27;103455.81;;;1.51;89.82
70407;BME280;57821;52.202;0.154;2023-02-28T06:30:53;103453.25;;;1.51;89.89
70407;BME280;57821;52.202;0.154;2023-02-28T06:33:20;103451.56;;;1.52;89.13
70407;BME280;57821;52.202;0.154;2023-02-28T06:35:50;103461.47;;;1.59;89.30
70407;BME280;57821;52.202;0.154;2023-02-28T06:38:17;103420.84;;;1.40;89.50
70407;BME280;57821;52.202;0.154;2023-02-28T06:40:44;103468.97;;;1.68;89.75
70407;BME280;57821;52.202;0.154;2023-02-28T06:43:18;103455.94;;;1.64;89.22
70407;BME280;57821;52.202;0.154;2023-02-28T06:45:45;103452.84;;;1.69;89.51
70407;BME280;57821;52.202;0.154;2023-02-28T06:48:11;103464.53;;;1.77;89.37
70407;BME280;57821;52.202;0.154;2023-02-28T06:50:38;103439.72;;;1.76;89.82
70407;BME280;57821;52.202;0.154;2023-02-28T06:53:05;103444.19;;;1.78;89.15
70407;BME280;57821;52.202;0.154;2023-02-28T06:55:31;103451.88;;;1.90;89.46
70407;BME280;57821;52.202;0.154;2023-02-28T06:57:58;103450.41;;;1.93;89.78
70407;BME280;57821;52.202;0.154;2023-02-28T07:00:25;103435.63;;;1.89;89.67
70407;BME280;57821;52.202;0.154;2023-02-28T07:02:51;103436.84;;;1.94;90.03
70407;BME280;57821;52.202;0.154;2023-02-28T07:05:18;103445.22;;;2.03;89.77
70407;BME280;57821;52.202;0.154;2023-02-28T07:07:44;103441.97;;;2.06;90.09
70407;BME280;57821;52.202;0.154;2023-02-28T07:10:11;103439.75;;;2.11;90.21
70407;BME280;57821;52.202;0.154;2023-02-28T07:12:38;103456.69;;;2.20;90.00
70407;BME280;57821;52.202;0.154;2023-02-28T07:15:05;103451.56;;;2.20;89.93
70407;BME280;57821;52.202;0.154;2023-02-28T07:17:32;103457.22;;;2.28;89.97
70407;BME280;57821;52.202;0.154;2023-02-28T07:19:58;103460.22;;;2.34;89.87
70407;BME280;57821;52.202;0.154;2023-02-28T07:22:25;103448.56;;;2.37;90.55
70407;BME280;57821;52.202;0.154;2023-02-28T07:24:51;103453.09;;;2.41;90.68
70407;BME280;57821;52.202;0.154;2023-02-28T07:27:18;103469.13;;;2.51;90.18
70407;BME280;57821;52.202;0.154;2023-02-28T07:29:44;103448.63;;;2.51;90.04
70407;BME280;57821;52.202;0.154;2023-02-28T07:32:11;103439.25;;;2.63;90.76
70407;BME280;57821;52.202;0.154;2023-02-28T07:34:38;103439.69;;;2.69;90.83
70407;BME280;57821;52.202;0.154;2023-02-28T07:37:04;103444.13;;;2.83;90.93
70407;BME280;57821;52.202;0.154;2023-02-28T07:39:31;103435.88;;;2.87;91.79
70407;BME280;57821;52.202;0.154;2023-02-28T07:41:57;103436.72;;;2.99;91.60
70407;BME280;57821;52.202;0.154;2023-02-28T07:44:26;103438.47;;;3.12;90.95
70407;BME280;57821;52.202;0.154;2023-02-28T07:46:52;103430.00;;;3.13;92.04
70407;BME280;57821;52.202;0.154;2023-02-28T07:49:19;103441.41;;;3.29;91.70
70407;BME280;57821;52.202;0.154;2023-02-28T07:51:45;103430.66;;;3.35;91.84
70407;BME280;57821;52.202;0.154;2023-02-28T07:54:12;103435.75;;;3.47;91.96
70407;BME280;57821;52.202;0.154;2023-02-28T07:56:39;103439.13;;;3.59;91.75
70407;BME280;57821;52.202;0.154;2023-02-28T07:59:05;103430.25;;;3.67;92.10
70407;BME280;57821;52.202;0.154;2023-02-28T08:01:32;103425.44;;;3.71;92.09
70407;BME280;57821;52.202;0.154;2023-02-28T08:03:58;103435.03;;;3.87;92.53
70407;BME280;57821;52.202;0.154;2023-02-28T08:06:25;103432.97;;;3.95;92.90
70407;BME280;57821;52.202;0.154;2023-02-28T08:08:55;103434.34;;;4.03;92.69
70407;BME280;57821;52.202;0.154;2023-02-28T08:11:24;103421.63;;;4.04;92.51
70407;BME280;57821;52.202;0.154;2023-02-28T08:13:51;103426.06;;;4.20;92.13
70407;BME280;57821;52.202;0.154;2023-02-28T08:16:17;103437.22;;;4.34;92.47
70407;BME280;57821;52.202;0.154;2023-02-28T08:18:44;103422.81;;;4.36;92.75
70407;BME280;57821;52.202;0.154;2023-02-28T08:21:11;103434.66;;;4.47;92.48
70407;BME280;57821;52.202;0.154;2023-02-28T08:23:37;103431.88;;;4.57;92.14
70407;BME280;57821;52.202;0.154;2023-02-28T08:26:04;103424.34;;;4.60;92.22
70407;BME280;57821;52.202;0.154;2023-02-28T08:28:32;103438.97;;;4.74;92.43
70407;BME280;57821;52.202;0.154;2023-02-28T08:30:58;103434.97;;;4.79;92.56
70407;BME280;57821;52.202;0.154;2023-02-28T08:33:27;103430.50;;;4.90;91.98
70407;BME280;57821;52.202;0.154;2023-02-28T08:35:55;103425.47;;;4.91;92.01
70407;BME280;57821;52.202;0.154;2023-02-28T08:38:22;103432.94;;;5.02;91.94
70407;BME280;57821;52.202;0.154;2023-02-28T08:40:49;103430.75;;;5.08;91.69
70407;BME280;57821;52.202;0.154;2023-02-28T08:43:16;103431.31;;;5.17;91.81
70407;BME280;57821;52.202;0.154;2023-02-28T08:45:43;103432.47;;;5.22;92.42
70407;BME280;57821;52.202;0.154;2023-02-28T08:48:10;103434.44;;;5.26;92.13
70407;BME280;57821;52.202;0.154;2023-02-28T08:50:37;103434.44;;;5.26;92.30
70407;BME280;57821;52.202;0.154;2023-02-28T08:53:03;103425.94;;;5.27;92.18
70407;BME280;57821;52.202;0.154;2023-02-28T08:55:30;103427.19;;;5.33;92.37
70407;BME280;57821;52.202;0.154;2023-02-28T08:57:57;103423.09;;;5.37;92.07
70407;BME280;57821;52.202;0.154;2023-02-28T09:00:23;103417.25;;;5.40;92.44
70407;BME280;57821;52.202;0.154;2023-02-28T09:02:50;103421.00;;;5.45;92.66
70407;BME280;57821;52.202;0.154;2023-02-28T09:05:17;103426.41;;;5.49;92.70
70407;BME280;57821;52.202;0.154;2023-02-28T09:07:43;103404.91;;;5.49;92.65
70407;BME280;57821;52.202;0.154;2023-02-28T09:10:10;103424.75;;;5.64;93.16
70407;BME280;57821;52.202;0.154;2023-02-28T09:12:37;103422.06;;;5.77;94.38
70407;BME280;57821;52.202;0.154;2023-02-28T09:15:04;103419.28;;;5.88;93.55
70407;BME280;57821;52.202;0.154;2023-02-28T09:17:31;103424.25;;;5.99;93.79
70407;BME280;57821;52.202;0.154;2023-02-28T09:19:57;103420.66;;;6.12;93.55
70407;BME280;57821;52.202;0.154;2023-02-28T09:22:24;103416.38;;;6.27;93.59
70407;BME280;57821;52.202;0.154;2023-02-28T09:24:50;103412.47;;;6.34;92.97
70407;BME280;57821;52.202;0.154;2023-02-28T09:27:17;103415.63;;;6.44;92.24
70407;BME280;57821;52.202;0.154;2023-02-28T09:29:43;103434.34;;;6.56;92.35
70407;BME280;57821;52.202;0.154;2023-02-28T09:32:10;103416.44;;;6.59;92.46
70407;BME280;57821;52.202;0.154;2023-02-28T09:34:37;103398.34;;;6.58;91.99
70407;BME280;57821;52.202;0.154;2023-02-28T09:37:04;103418.75;;;6.70;91.61
70407;BME280;57821;52.202;0.154;2023-02-28T09:39:31;103406.47;;;6.66;90.67
70407;BME280;57821;52.202;0.154;2023-02-28T09:41:57;103408.25;;;6.67;90.72
70407;BME280;57821;52.202;0.154;2023-02-28T09:44:31;103416.78;;;6.66;90.19
70407;BME280;57821;52.202;0.154;2023-02-28T09:47:10;103406.06;;;6.58;91.14
70407;BME280;57821;52.202;0.154;2023-02-28T09:49:46;103422.75;;;6.65;91.21
70407;BME280;57821;52.202;0.154;2023-02-28T09:52:17;103408.09;;;6.64;90.37
70407;BME280;57821;52.202;0.154;2023-02-28T09:54:45;103427.09;;;6.66;90.38
70407;BME280;57821;52.202;0.154;2023-02-28T09:57:37;103430.47;;;6.65;90.44
70407;BME280;57821;52.202;0.154;2023-02-28T10:00:18;103440.72;;;6.63;90.28
70407;BME280;57821;52.202;0.154;2023-02-28T10:05:23;103428.38;;;6.57;90.21
70407;BME280;57821;52.202;0.154;2023-02-28T10:08:01;103431.03;;;6.59;90.39
70407;BME280;57821;52.202;0.154;2023-02-28T10:10:45;103433.53;;;6.57;90.93
70407;BME280;57821;52.202;0.154;2023-02-28T10:13:48;103436.38;;;6.62;90.46
70407;BME280;57821;52.202;0.154;2023-02-28T10:16:26;103425.97;;;6.60;91.13
70407;BME280;57821;52.202;0.154;2023-02-28T10:22:03;103421.16;;;6.67;90.34
70407;BME280;57821;52.202;0.154;2023-02-28T10:24:39;103423.34;;;6.75;90.98
70407;BME280;57821;52.202;0.154;2023-02-28T10:29:50;103419.97;;;6.92;90.74
70407;BME280;57821;52.202;0.154;2023-02-28T10:32:29;103413.59;;;7.02;90.22
70407;BME280;57821;52.202;0.154;2023-02-28T10:35:00;103421.19;;;7.15;90.38
70407;BME280;57821;52.202;0.154;2023-02-28T10:37:28;103407.50;;;7.16;90.19
70407;BME280;57821;52.202;0.154;2023-02-28T10:39:54;103415.94;;;7.30;89.82
70407;BME280;57821;52.202;0.154;2023-02-28T10:42:27;103418.03;;;7.37;89.00
70407;BME280;57821;52.202;0.154;2023-02-28T10:45:23;103412.28;;;7.42;89.00
70407;BME280;57821;52.202;0.154;2023-02-28T10:47:59;103419.53;;;7.50;88.59
70407;BME280;57821;52.202;0.154;2023-02-28T11:04:02;103405.50;;;7.45;86.74
70407;BME280;57821;52.202;0.154;2023-02-28T11:06:30;103407.13;;;7.42;87.20
70407;BME280;57821;52.202;0.154;2023-02-28T11:09:02;103386.34;;;7.39;87.02
70407;BME280;57821;52.202;0.154;2023-02-28T11:11:30;103386.34;;;7.39;86.47
70407;BME280;57821;52.202;0.154;2023-02-28T11:14:26;103382.59;;;7.34;86.34
70407;BME280;57821;52.202;0.154;2023-02-28T11:16:55;103382.91;;;7.40;86.30
70407;BME280;57821;52.202;0.154;2023-02-28T11:19:28;103384.69;;;7.41;86.56
70407;BME280;57821;52.202;0.154;2023-02-28T11:21:59;103385.75;;;7.45;86.44
70407;BME280;57821;52.202;0.154;2023-02-28T11:24:27;103369.69;;;7.51;86.55
70407;BME280;57821;52.202;0.154;2023-02-28T11:26:55;103371.09;;;7.62;86.44
70407;BME280;57821;52.202;0.154;2023-02-28T11:29:24;103365.56;;;7.72;87.01
70407;BME280;57821;52.202;0.154;2023-02-28T11:32:19;103367.94;;;7.85;86.84
70407;BME280;57821;52.202;0.154;2023-02-28T11:35:00;103360.41;;;7.90;85.20
70407;BME280;57821;52.202;0.154;2023-02-28T11:37:28;103358.34;;;8.00;84.92
70407;BME280;57821;52.202;0.154;2023-02-28T11:39:55;103358.81;;;8.09;85.21
70407;BME280;57821;52.202;0.154;2023-02-28T11:42:32;103340.25;;;8.18;83.64
70407;BME280;57821;52.202;0.154;2023-02-28T11:45:16;103343.00;;;8.21;82.90
70407;BME280;57821;52.202;0.154;2023-02-28T11:56:03;103327.00;;;8.47;81.97
70407;BME280;57821;52.202;0.154;2023-02-28T11:58:42;103335.13;;;8.55;81.86
70407;BME280;57821;52.202;0.154;2023-02-28T12:01:28;103342.91;;;8.56;81.44
70407;BME280;57821;52.202;0.154;2023-02-28T12:04:21;103334.50;;;8.60;80.74
70407;BME280;57821;52.202;0.154;2023-02-28T12:07:07;103330.97;;;8.58;80.85
70407;BME280;57821;52.202;0.154;2023-02-28T12:29:29;103297.25;;;8.57;79.63
70407;BME280;57821;52.202;0.154;2023-02-28T12:32:13;103284.94;;;8.51;79.25
70407;BME280;57821;52.202;0.154;2023-02-28T12:34:47;103287.00;;;8.58;80.05
70407;BME280;57821;52.202;0.154;2023-02-28T12:37:33;103289.78;;;8.63;79.33
70407;BME280;57821;52.202;0.154;2023-02-28T12:40:03;103287.81;;;8.57;78.50
70407;BME280;57821;52.202;0.154;2023-02-28T12:42:35;103299.91;;;8.58;79.15
70407;BME280;57821;52.202;0.154;2023-02-28T12:45:40;103300.00;;;8.60;78.90
70407;BME280;57821;52.202;0.154;2023-02-28T12:48:10;103287.16;;;8.61;79.50
70407;BME280;57821;52.202;0.154;2023-02-28T12:50:40;103289.84;;;8.64;78.19
70407;BME280;57821;52.202;0.154;2023-02-28T12:53:14;103289.56;;;8.58;78.70
70407;BME280;57821;52.202;0.154;2023-02-28T12:58:39;103299.72;;;8.54;78.07
70407;BME280;57821;52.202;0.154;2023-02-28T13:04:21;103271.53;;;8.41;78.18
70407;BME280;57821;52.202;0.154;2023-02-28T13:09:25;103271.47;;;8.39;77.99
70407;BME280;57821;52.202;0.154;2023-02-28T13:11:53;103257.09;;;8.27;77.33
70407;BME280;57821;52.202;0.154;2023-02-28T13:14:28;103270.94;;;8.29;78.42
70407;BME280;57821;52.202;0.154;2023-02-28T13:19:46;103253.38;;;8.21;78.63
70407;BME280;57821;52.202;0.154;2023-02-28T13:24:52;103249.47;;;8.30;78.22
70407;BME280;57821;52.202;0.154;2023-02-28T13:27:35;103242.53;;;8.29;78.64
70407;BME280;57821;52.202;0.154;2023-02-28T13:31:07;103244.53;;;8.34;78.75
70407;BME280;57821;52.202;0.154;2023-02-28T13:33:21;103242.91;;;8.36;77.76
70407;BME280;57821;52.202;0.154;2023-02-28T13:36:06;103244.59;;;8.36;77.93
70407;BME280;57821;52.202;0.154;2023-02-28T13:49:32;103241.31;;;8.40;78.52
70407;BME280;57821;52.202;0.154;2023-02-28T14:03:00;103227.88;;;8.47;77.37
70407;BME280;57821;52.202;0.154;2023-02-28T14:05:33;103223.66;;;8.49;77.32
70407;BME280;57821;52.202;0.154;2023-02-28T14:08:20;103223.84;;;8.53;77.36
70407;BME280;57821;52.202;0.154;2023-02-28T14:10:51;103222.41;;;8.60;77.52
70407;BME280;57821;52.202;0.154;2023-02-28T14:13:44;103219.13;;;8.64;76.63
70407;BME280;57821;52.202;0.154;2023-02-28T14:16:19;103215.19;;;8.72;76.71
70407;BME280;57821;52.202;0.154;2023-02-28T14:19:13;103204.03;;;8.73;76.43
70407;BME280;57821;52.202;0.154;2023-02-28T14:25:09;103204.41;;;8.82;76.63
70407;BME280;57821;52.202;0.154;2023-02-28T14:28:03;103196.91;;;8.88;76.76
70407;BME280;57821;52.202;0.154;2023-02-28T14:33:41;103189.97;;;9.08;75.76
70407;BME280;57821;52.202;0.154;2023-02-28T14:38:56;103179.91;;;9.16;75.67
70407;BME280;57821;52.202;0.154;2023-02-28T14:41:43;103182.00;;;9.24;76.07
70407;BME280;57821;52.202;0.154;2023-02-28T14:44:36;103179.84;;;9.35;75.59
70407;BME280;57821;52.202;0.154;2023-02-28T14:47:03;103179.09;;;9.37;75.34
70407;BME280;57821;52.202;0.154;2023-02-28T14:49:34;103187.78;;;9.39;75.24
70407;BME280;57821;52.202;0.154;2023-02-28T14:52:21;103189.19;;;9.31;74.51
70407;BME280;57821;52.202;0.154;2023-02-28T14:54:54;103190.69;;;9.26;75.07
70407;BME280;57821;52.202;0.154;2023-02-28T14:57:23;103194.88;;;9.23;75.76
70407;BME280;57821;52.202;0.154;2023-02-28T15:00:04;103210.28;;;9.20;75.18
70407;BME280;57821;52.202;0.154;2023-02-28T15:02:37;103200.78;;;9.20;75.50
70407;BME280;57821;52.202;0.154;2023-02-28T15:07:40;103193.81;;;9.18;76.18
70407;BME280;57821;52.202;0.154;2023-02-28T15:18:38;103177.53;;;8.99;75.23
70407;BME280;57821;52.202;0.154;2023-02-28T15:21:20;103176.94;;;8.86;75.44
70407;BME280;57821;52.202;0.154;2023-02-28T15:24:17;103186.41;;;8.85;75.70
70407;BME280;57821;52.202;0.154;2023-02-28T15:26:54;103172.28;;;8.77;75.72
70407;BME280;57821;52.202;0.154;2023-02-28T15:29:23;103178.97;;;8.72;75.74
70407;BME280;57821;52.202;0.154;2023-02-28T15:31:55;103180.22;;;8.61;75.61
70407;BME280;57821;52.202;0.154;2023-02-28T15:34:40;103182.59;;;8.56;75.84
70407;BME280;57821;52.202;0.154;2023-02-28T15:39:54;103197.91;;;8.52;76.58
70407;BME280;57821;52.202;0.154;2023-02-28T15:42:23;103188.38;;;8.51;76.62